sensor_id;sensor_type;location;lat;lon;timestamp;pressure;altitude;pressure_sealevel;temperature;humidity
33404;BME280;19751;40.274;18.268;2023-12-20T00:00:36;101478.56;;;10.64;100.00
33404;BME280;19751;40.274;18.268;2023-12-20T00:03:03;101478.06;;;10.61;100.00
33404;BME280;19751;40.274;18.268;2023-12-20T00:05:28;101475.53;;;10.59;100.00
33404;BME280;19751;40.274;18.268;2023-12-20T00:07:54;101480.94;;;10.59;100.00
33404;BME280;19751;40.274;18.268;2023-12-20T00:10:19;101479.41;;;10.57;100.00
33404;BME280;19751;40.274;18.268;2023-12-20T00:12:45;101472.53;;;10.54;100.00
33404;BME280;19751;40.274;18.268;2023-12-20T00:15:11;101473.38;;;10.55;100.00
33404;BME280;19751;40.274;18.268;2023-12-20T00:17:36;101466.31;;;10.54;100.00
33404;BME280;19751;40.274;18.268;2023-12-20T00:20:02;101464.59;;;10.53;100.00
33404;BME280;19751;40.274;18.268;2023-12-20T00:22:27;101469.97;;;10.53;100.00
33404;BME280;19751;40.274;18.268;2023-12-20T00:24:53;101462.59;;;10.55;100.00
33404;BME280;19751;40.274;18.268;2023-12-20T00:27:18;101458.56;;;10.51;100.00
33404;BME280;19751;40.274;18.268;2023-12-20T00:29:44;101453.69;;;10.46;100.00
33404;BME280;19751;40.274;18.268;2023-12-20T00:32:13;101462.78;;;10.45;100.00
33404;BME280;19751;40.274;18.268;2023-12-20T00:34:39;101457.88;;;10.49;100.00
33404;BME280;19751;40.274;18.268;2023-12-20T00:37:04;101456.38;;;10.46;100.00
33404;BME280;19751;40.274;18.268;2023-12-20T00:39:30;101458.56;;;10.42;100.00
33404;BME280;19751;40.274;18.268;2023-12-20T00:41:55;101454.84;;;10.43;100.00
33404;BME280;19751;40.274;18.268;2023-12-20T00:44:20;101452.16;;;10.43;100.00
33404;BME280;19751;40.274;18.268;2023-12-20T00:46:46;101447.28;;;10.47;100.00
33404;BME280;19751;40.274;18.268;2023-12-20T00:49:11;101448.13;;;10.48;100.00
33404;BME280;19751;40.274;18.268;2023-12-20T00:51:37;101439.53;;;10.52;100.00
33404;BME280;19751;40.274;18.268;2023-12-20T00:54:02;101440.19;;;10.54;100.00
33404;BME280;19751;40.274;18.268;2023-12-20T00:56:28;101446.09;;;10.58;100.00
33404;BME280;19751;40.274;18.268;2023-12-20T00:58:53;101447.75;;;10.59;100.00
33404;BME280;19751;40.274;18.268;2023-12-20T01:01:19;101446.09;;;10.58;100.00
33404;BME280;19751;40.274;18.268;2023-12-20T01:03:44;101444.06;;;10.60;100.00
33404;BME280;19751;40.274;18.268;2023-12-20T01:06:10;101444.06;;;10.60;100.00
33404;BME280;19751;40.274;18.268;2023-12-20T01:08:37;101445.91;;;10.59;100.00
33404;BME280;19751;40.274;18.268;2023-12-20T01:11:06;101441.03;;;10.55;100.00
33404;BME280;19751;40.274;18.268;2023-12-20T01:13:31;101437.34;;;10.48;100.00
33404;BME280;19751;40.274;18.268;2023-12-20T01:15:57;101438.69;;;10.43;100.00
33404;BME280;19751;40.274;18.268;2023-12-20T01:18:22;101434.50;;;10.41;100.00
33404;BME280;19751;40.274;18.268;2023-12-20T01:20:48;101431.13;;;10.39;100.00
33404;BME280;19751;40.274;18.268;2023-12-20T01:23:13;101424.22;;;10.36;100.00
33404;BME280;19751;40.274;18.268;2023-12-20T01:25:39;101421.06;;;10.33;100.00
33404;BME280;19751;40.274;18.268;2023-12-20T01:28:04;101416.53;;;10.33;100.00
33404;BME280;19751;40.274;18.268;2023-12-20T01:30:30;101407.59;;;10.33;100.00
33404;BME280;19751;40.274;18.268;2023-12-20T01:32:55;101405.56;;;10.35;100.00
33404;BME280;19751;40.274;18.268;2023-12-20T01:35:21;101402.19;;;10.41;100.00
33404;BME280;19751;40.274;18.268;2023-12-20T01:37:46;101392.06;;;10.43;100.00
33404;BME280;19751;40.274;18.268;2023-12-20T01:40:12;101389.91;;;10.38;100.00
33404;BME280;19751;40.274;18.268;2023-12-20T01:42:37;101398.16;;;10.37;100.00
33404;BME280;19751;40.274;18.268;2023-12-20T01:45:03;101393.78;;;10.36;100.00
33404;BME280;19751;40.274;18.268;2023-12-20T01:47:30;101390.25;;;10.35;100.00
33404;BME280;19751;40.274;18.268;2023-12-20T01:49:55;101395.28;;;10.38;100.00
33404;BME280;19751;40.274;18.268;2023-12-20T01:52:22;101384.53;;;10.38;100.00
33404;BME280;19751;40.274;18.268;2023-12-20T01:54:49;101375.94;;;10.35;100.00
33404;BME280;19751;40.274;18.268;2023-12-20T01:57:15;101374.28;;;10.26;100.00
33404;BME280;19751;40.274;18.268;2023-12-20T01:59:41;101369.38;;;10.21;100.00
33404;BME280;19751;40.274;18.268;2023-12-20T02:02:07;101364.34;;;10.18;100.00
33404;BME280;19751;40.274;18.268;2023-12-20T02:04:33;101363.50;;;10.17;100.00
33404;BME280;19751;40.274;18.268;2023-12-20T02:06:59;101353.25;;;10.13;100.00
33404;BME280;19751;40.274;18.268;2023-12-20T02:09:24;101357.31;;;10.09;100.00
33404;BME280;19751;40.274;18.268;2023-12-20T02:11:50;101344.50;;;10.03;100.00
33404;BME280;19751;40.274;18.268;2023-12-20T02:14:16;101347.56;;;10.00;100.00
33404;BME280;19751;40.274;18.268;2023-12-20T02:16:41;101342.00;;;9.93;100.00
33404;BME280;19751;40.274;18.268;2023-12-20T02:19:13;101333.13;;;9.84;100.00
33404;BME280;19751;40.274;18.268;2023-12-20T02:21:39;101338.31;;;9.78;100.00
33404;BME280;19751;40.274;18.268;2023-12-20T02:24:05;101323.53;;;9.74;100.00
33404;BME280;19751;40.274;18.268;2023-12-20T02:26:32;101323.38;;;9.67;100.00
33404;BME280;19751;40.274;18.268;2023-12-20T02:28:59;101317.66;;;9.62;100.00
33404;BME280;19751;40.274;18.268;2023-12-20T02:31:24;101314.63;;;9.57;100.00
33404;BME280;19751;40.274;18.268;2023-12-20T02:33:50;101315.97;;;9.53;100.00
33404;BME280;19751;40.274;18.268;2023-12-20T02:36:15;101320.00;;;9.49;100.00
33404;BME280;19751;40.274;18.268;2023-12-20T02:38:41;101313.66;;;9.41;100.00
33404;BME280;19751;40.274;18.268;2023-12-20T02:41:06;101311.78;;;9.34;100.00
33404;BME280;19751;40.274;18.268;2023-12-20T02:43:32;101310.59;;;9.28;100.00
33404;BME280;19751;40.274;18.268;2023-12-20T02:45:57;101303.22;;;9.22;100.00
33404;BME280;19751;40.274;18.268;2023-12-20T02:48:23;101304.53;;;9.18;100.00
33404;BME280;19751;40.274;18.268;2023-12-20T02:50:48;101305.72;;;9.15;100.00
33404;BME280;19751;40.274;18.268;2023-12-20T02:53:14;101302.50;;;9.12;100.00
33404;BME280;19751;40.274;18.268;2023-12-20T02:55:40;101296.66;;;9.08;100.00
33404;BME280;19751;40.274;18.268;2023-12-20T02:58:06;101295.44;;;9.03;100.00
33404;BME280;19751;40.274;18.268;2023-12-20T03:00:31;101297.47;;;9.01;100.00
33404;BME280;19751;40.274;18.268;2023-12-20T03:02:57;101295.44;;;8.94;100.00
33404;BME280;19751;40.274;18.268;2023-12-20T03:05:22;101296.09;;;8.88;100.00
33404;BME280;19751;40.274;18.268;2023-12-20T03:07:48;101296.44;;;8.85;100.00
33404;BME280;19751;40.274;18.268;2023-12-20T03:10:13;101294.75;;;8.84;100.00
33404;BME280;19751;40.274;18.268;2023-12-20T03:12:38;101289.91;;;8.88;100.00
33404;BME280;19751;40.274;18.268;2023-12-20T03:15:04;101285.53;;;8.95;100.00
33404;BME280;19751;40.274;18.268;2023-12-20T03:17:30;101287.38;;;9.03;100.00
33404;BME280;19751;40.274;18.268;2023-12-20T03:19:56;101282.88;;;9.11;100.00
33404;BME280;19751;40.274;18.268;2023-12-20T03:22:21;101271.59;;;9.16;100.00
33404;BME280;19751;40.274;18.268;2023-12-20T03:24:47;101270.78;;;9.15;100.00
33404;BME280;19751;40.274;18.268;2023-12-20T03:27:13;101279.03;;;9.22;100.00
33404;BME280;19751;40.274;18.268;2023-12-20T03:29:38;101282.53;;;9.23;100.00
33404;BME280;19751;40.274;18.268;2023-12-20T03:32:04;101278.31;;;9.20;100.00
33404;BME280;19751;40.274;18.268;2023-12-20T03:34:29;101267.75;;;9.18;100.00
33404;BME280;19751;40.274;18.268;2023-12-20T03:36:55;101266.91;;;9.18;100.00
33404;BME280;19751;40.274;18.268;2023-12-20T03:39:20;101271.97;;;9.21;100.00
33404;BME280;19751;40.274;18.268;2023-12-20T03:41:46;101268.59;;;9.19;100.00
33404;BME280;19751;40.274;18.268;2023-12-20T03:44:11;101260.34;;;9.20;100.00
33404;BME280;19751;40.274;18.268;2023-12-20T03:46:37;101259.38;;;9.21;100.00
33404;BME280;19751;40.274;18.268;2023-12-20T03:49:02;101252.78;;;9.24;100.00
33404;BME280;19751;40.274;18.268;2023-12-20T03:51:28;101256.81;;;9.28;100.00
33404;BME280;19751;40.274;18.268;2023-12-20T03:53:53;101249.13;;;9.33;100.00
33404;BME280;19751;40.274;18.268;2023-12-20T03:56:19;101248.44;;;9.39;100.00
33404;BME280;19751;40.274;18.268;2023-12-20T03:58:44;101244.56;;;9.42;100.00
33404;BME280;19751;40.274;18.268;2023-12-20T04:01:10;101242.03;;;9.49;100.00
33404;BME280;19751;40.274;18.268;2023-12-20T04:03:39;101226.41;;;9.52;100.00
33404;BME280;19751;40.274;18.268;2023-12-20T04:06:05;101231.59;;;9.54;100.00
33404;BME280;19751;40.274;18.268;2023-12-20T04:08:31;101224.22;;;9.56;100.00
33404;BME280;19751;40.274;18.268;2023-12-20T04:10:57;101218.00;;;9.55;100.00
33404;BME280;19751;40.274;18.268;2023-12-20T04:13:22;101217.31;;;9.53;100.00
33404;BME280;19751;40.274;18.268;2023-12-20T04:15:48;101215.63;;;9.52;100.00
33404;BME280;19751;40.274;18.268;2023-12-20T04:18:16;101210.78;;;9.48;100.00
33404;BME280;19751;40.274;18.268;2023-12-20T04:20:41;101217.84;;;9.40;100.00
33404;BME280;19751;40.274;18.268;2023-12-20T04:23:07;101213.31;;;9.33;100.00
33404;BME280;19751;40.274;18.268;2023-12-20T04:25:32;101213.81;;;9.28;100.00
33404;BME280;19751;40.274;18.268;2023-12-20T04:27:58;101215.53;;;9.21;100.00
33404;BME280;19751;40.274;18.268;2023-12-20T04:30:23;101209.47;;;9.11;100.00
33404;BME280;19751;40.274;18.268;2023-12-20T04:32:49;101210.66;;;9.08;100.00
33404;BME280;19751;40.274;18.268;2023-12-20T04:35:14;101211.13;;;9.04;100.00
33404;BME280;19751;40.274;18.268;2023-12-20T04:37:40;101202.09;;;8.96;100.00
33404;BME280;19751;40.274;18.268;2023-12-20T04:40:06;101207.09;;;8.91;100.00
33404;BME280;19751;40.274;18.268;2023-12-20T04:42:32;101206.44;;;8.89;100.00
33404;BME280;19751;40.274;18.268;2023-12-20T04:44:58;101199.22;;;8.82;100.00
33404;BME280;19751;40.274;18.268;2023-12-20T04:47:23;101203.09;;;8.79;100.00
33404;BME280;19751;40.274;18.268;2023-12-20T04:49:49;101205.41;;;8.82;100.00
33404;BME280;19751;40.274;18.268;2023-12-20T04:52:14;101203.44;;;8.84;100.00
33404;BME280;19751;40.274;18.268;2023-12-20T04:54:40;101200.03;;;8.82;100.00
33404;BME280;19751;40.274;18.268;2023-12-20T04:57:05;101193.00;;;8.81;100.00
33404;BME280;19751;40.274;18.268;2023-12-20T04:59:31;101198.06;;;8.84;100.00
33404;BME280;19751;40.274;18.268;2023-12-20T05:01:56;101189.63;;;8.87;100.00
33404;BME280;19751;40.274;18.268;2023-12-20T05:04:22;101188.28;;;8.91;100.00
33404;BME280;19751;40.274;18.268;2023-12-20T05:06:48;101188.28;;;9.00;100.00
33404;BME280;19751;40.274;18.268;2023-12-20T05:09:15;101185.47;;;9.01;100.00
33404;BME280;19751;40.274;18.268;2023-12-20T05:11:40;101188.16;;;8.93;100.00
33404;BME280;19751;40.274;18.268;2023-12-20T05:14:06;101181.25;;;8.90;100.00
33404;BME280;19751;40.274;18.268;2023-12-20T05:16:32;101173.50;;;8.87;100.00
33404;BME280;19751;40.274;18.268;2023-12-20T05:18:58;101183.44;;;8.87;100.00
33404;BME280;19751;40.274;18.268;2023-12-20T05:21:26;101166.66;;;8.85;100.00
33404;BME280;19751;40.274;18.268;2023-12-20T05:23:51;101171.19;;;8.84;100.00
33404;BME280;19751;40.274;18.268;2023-12-20T05:26:17;101176.56;;;8.84;100.00
33404;BME280;19751;40.274;18.268;2023-12-20T05:28:42;101174.84;;;8.83;100.00
33404;BME280;19751;40.274;18.268;2023-12-20T05:31:08;101168.00;;;8.81;100.00
33404;BME280;19751;40.274;18.268;2023-12-20T05:33:34;101170.50;;;8.74;100.00
33404;BME280;19751;40.274;18.268;2023-12-20T05:36:00;101165.81;;;8.68;100.00
33404;BME280;19751;40.274;18.268;2023-12-20T05:38:25;101159.41;;;8.61;100.00
33404;BME280;19751;40.274;18.268;2023-12-20T05:40:51;101164.44;;;8.56;100.00
33404;BME280;19751;40.274;18.268;2023-12-20T05:43:16;101158.88;;;8.49;100.00
33404;BME280;19751;40.274;18.268;2023-12-20T05:45:42;101165.44;;;8.46;100.00
33404;BME280;19751;40.274;18.268;2023-12-20T05:48:07;101162.91;;;8.45;100.00
33404;BME280;19751;40.274;18.268;2023-12-20T05:50:33;101162.59;;;8.48;100.00
33404;BME280;19751;40.274;18.268;2023-12-20T05:53:00;101161.56;;;8.49;100.00
33404;BME280;19751;40.274;18.268;2023-12-20T05:55:25;101167.78;;;8.50;100.00
33404;BME280;19751;40.274;18.268;2023-12-20T05:57:51;101154.34;;;8.50;100.00
33404;BME280;19751;40.274;18.268;2023-12-20T06:00:17;101167.78;;;8.50;100.00
33404;BME280;19751;40.274;18.268;2023-12-20T06:02:43;101165.78;;;8.52;100.00
33404;BME280;19751;40.274;18.268;2023-12-20T06:05:09;101171.47;;;8.49;100.00
33404;BME280;19751;40.274;18.268;2023-12-20T06:07:34;101162.25;;;8.43;100.00
33404;BME280;19751;40.274;18.268;2023-12-20T06:10:00;101155.34;;;8.40;100.00
33404;BME280;19751;40.274;18.268;2023-12-20T06:12:25;101158.03;;;8.40;100.00
33404;BME280;19751;40.274;18.268;2023-12-20T06:14:52;101152.66;;;8.40;100.00
33404;BME280;19751;40.274;18.268;2023-12-20T06:17:18;101149.16;;;8.40;100.00
33404;BME280;19751;40.274;18.268;2023-12-20T06:19:43;101157.19;;;8.40;100.00
33404;BME280;19751;40.274;18.268;2023-12-20T06:22:10;101153.84;;;8.38;100.00
33404;BME280;19751;40.274;18.268;2023-12-20T06:24:36;101160.06;;;8.38;100.00
33404;BME280;19751;40.274;18.268;2023-12-20T06:27:01;101155.53;;;8.39;100.00
33404;BME280;19751;40.274;18.268;2023-12-20T06:29:28;101153.69;;;8.39;100.00
33404;BME280;19751;40.274;18.268;2023-12-20T06:31:53;101155.22;;;8.42;100.00
33404;BME280;19751;40.274;18.268;2023-12-20T06:34:19;101157.88;;;8.42;100.00
33404;BME280;19751;40.274;18.268;2023-12-20T06:36:44;101150.50;;;8.44;100.00
33404;BME280;19751;40.274;18.268;2023-12-20T06:39:10;101146.97;;;8.43;100.00
33404;BME280;19751;40.274;18.268;2023-12-20T06:41:38;101142.63;;;8.42;100.00
33404;BME280;19751;40.274;18.268;2023-12-20T06:44:03;101143.59;;;8.41;100.00
33404;BME280;19751;40.274;18.268;2023-12-20T06:46:29;101141.59;;;8.43;100.00
33404;BME280;19751;40.274;18.268;2023-12-20T06:48:54;101144.63;;;8.49;100.00
33404;BME280;19751;40.274;18.268;2023-12-20T06:51:20;101144.31;;;8.52;100.00
33404;BME280;19751;40.274;18.268;2023-12-20T06:53:45;101144.31;;;8.52;100.00
33404;BME280;19751;40.274;18.268;2023-12-20T06:56:11;101138.25;;;8.50;100.00
33404;BME280;19751;40.274;18.268;2023-12-20T06:58:37;101132.22;;;8.56;100.00
33404;BME280;19751;40.274;18.268;2023-12-20T07:01:03;101128.53;;;8.65;100.00
33404;BME280;19751;40.274;18.268;2023-12-20T07:03:29;101137.59;;;8.80;100.00
33404;BME280;19751;40.274;18.268;2023-12-20T07:05:55;101126.50;;;8.91;100.00
33404;BME280;19751;40.274;18.268;2023-12-20T07:08:20;101124.69;;;9.00;100.00
33404;BME280;19751;40.274;18.268;2023-12-20T07:10:46;101117.78;;;9.06;100.00
33404;BME280;19751;40.274;18.268;2023-12-20T07:13:11;101117.06;;;9.12;100.00
33404;BME280;19751;40.274;18.268;2023-12-20T07:15:37;101113.38;;;9.21;100.00
33404;BME280;19751;40.274;18.268;2023-12-20T07:18:03;101114.34;;;9.28;100.00
33404;BME280;19751;40.274;18.268;2023-12-20T07:20:29;101097.56;;;9.34;100.00
33404;BME280;19751;40.274;18.268;2023-12-20T07:22:55;101108.28;;;9.42;100.00
33404;BME280;19751;40.274;18.268;2023-12-20T07:25:20;101108.06;;;9.52;100.00
33404;BME280;19751;40.274;18.268;2023-12-20T07:27:46;101104.22;;;9.55;100.00
33404;BME280;19751;40.274;18.268;2023-12-20T07:30:12;101097.81;;;9.56;100.00
33404;BME280;19751;40.274;18.268;2023-12-20T07:32:37;101094.78;;;9.59;100.00
33404;BME280;19751;40.274;18.268;2023-12-20T07:35:03;101096.25;;;9.61;100.00
33404;BME280;19751;40.274;18.268;2023-12-20T07:37:28;101089.03;;;9.62;100.00
33404;BME280;19751;40.274;18.268;2023-12-20T07:39:54;101086.19;;;9.63;100.00
33404;BME280;19751;40.274;18.268;2023-12-20T07:42:19;101082.97;;;9.68;100.00
33404;BME280;19751;40.274;18.268;2023-12-20T07:44:47;101085.13;;;9.73;100.00
33404;BME280;19751;40.274;18.268;2023-12-20T07:47:12;101085.63;;;9.76;100.00
33404;BME280;19751;40.274;18.268;2023-12-20T07:49:40;101074.13;;;9.82;100.00
33404;BME280;19751;40.274;18.268;2023-12-20T07:52:06;101072.63;;;9.88;100.00
33404;BME280;19751;40.274;18.268;2023-12-20T07:54:33;101072.09;;;9.92;100.00
33404;BME280;19751;40.274;18.268;2023-12-20T07:56:59;101065.16;;;9.98;100.00
33404;BME280;19751;40.274;18.268;2023-12-20T07:59:24;101071.00;;;10.02;100.00
33404;BME280;19751;40.274;18.268;2023-12-20T08:01:50;101077.22;;;10.02;100.00
33404;BME280;19751;40.274;18.268;2023-12-20T08:04:15;101075.03;;;10.06;100.00
33404;BME280;19751;40.274;18.268;2023-12-20T08:06:40;101073.13;;;10.14;100.00
33404;BME280;19751;40.274;18.268;2023-12-20T08:09:06;101073.78;;;10.25;100.00
33404;BME280;19751;40.274;18.268;2023-12-20T08:11:31;101071.84;;;10.33;100.00
33404;BME280;19751;40.274;18.268;2023-12-20T08:13:57;101076.34;;;10.41;100.00
33404;BME280;19751;40.274;18.268;2023-12-20T08:16:23;101071.53;;;10.51;100.00
33404;BME280;19751;40.274;18.268;2023-12-20T08:18:48;101076.66;;;10.61;100.00
33404;BME280;19751;40.274;18.268;2023-12-20T08:21:14;101067.50;;;10.70;100.00
33404;BME280;19751;40.274;18.268;2023-12-20T08:23:39;101077.66;;;10.83;100.00
33404;BME280;19751;40.274;18.268;2023-12-20T08:26:06;101078.22;;;10.93;100.00
33404;BME280;19751;40.274;18.268;2023-12-20T08:28:32;101086.22;;;11.01;100.00
33404;BME280;19751;40.274;18.268;2023-12-20T08:30:58;101074.25;;;11.04;100.00
33404;BME280;19751;40.274;18.268;2023-12-20T08:33:24;101077.59;;;11.06;100.00
33404;BME280;19751;40.274;18.268;2023-12-20T08:35:49;101075.00;;;11.12;100.00
33404;BME280;19751;40.274;18.268;2023-12-20T08:38:15;101078.81;;;11.18;100.00
33404;BME280;19751;40.274;18.268;2023-12-20T08:40:41;101078.44;;;11.21;100.00
33404;BME280;19751;40.274;18.268;2023-12-20T08:43:07;101067.56;;;11.29;100.00
33404;BME280;19751;40.274;18.268;2023-12-20T08:45:33;101064.94;;;11.36;100.00
33404;BME280;19751;40.274;18.268;2023-12-20T08:47:58;101058.00;;;11.41;100.00
33404;BME280;19751;40.274;18.268;2023-12-20T08:50:25;101057.59;;;11.44;100.00
33404;BME280;19751;40.274;18.268;2023-12-20T08:52:50;101047.09;;;11.50;100.00
33404;BME280;19751;40.274;18.268;2023-12-20T08:55:16;101045.31;;;11.57;100.00
33404;BME280;19751;40.274;18.268;2023-12-20T08:57:43;101040.38;;;11.60;100.00
33404;BME280;19751;40.274;18.268;2023-12-20T09:00:09;101035.06;;;11.67;100.00
33404;BME280;19751;40.274;18.268;2023-12-20T09:02:35;101037.41;;;11.70;100.00
33404;BME280;19751;40.274;18.268;2023-12-20T09:05:02;101027.06;;;11.74;100.00
33404;BME280;19751;40.274;18.268;2023-12-20T09:07:27;101027.31;;;11.79;100.00
33404;BME280;19751;40.274;18.268;2023-12-20T09:09:55;101015.16;;;11.83;100.00
33404;BME280;19751;40.274;18.268;2023-12-20T09:12:21;101004.81;;;11.86;100.00
33404;BME280;19751;40.274;18.268;2023-12-20T09:14:48;101003.00;;;11.93;100.00
33404;BME280;19751;40.274;18.268;2023-12-20T09:17:15;101001.66;;;12.04;100.00
33404;BME280;19751;40.274;18.268;2023-12-20T09:19:41;100996.31;;;12.11;100.00
33404;BME280;19751;40.274;18.268;2023-12-20T09:22:07;100995.19;;;12.20;100.00
33404;BME280;19751;40.274;18.268;2023-12-20T09:24:33;100993.16;;;12.29;100.00
33404;BME280;19751;40.274;18.268;2023-12-20T09:26:58;100986.97;;;12.35;100.00
33404;BME280;19751;40.274;18.268;2023-12-20T09:29:24;100988.09;;;12.40;100.00
33404;BME280;19751;40.274;18.268;2023-12-20T09:31:50;100988.31;;;12.46;100.00
33404;BME280;19751;40.274;18.268;2023-12-20T09:34:16;100975.72;;;12.53;100.00
33404;BME280;19751;40.274;18.268;2023-12-20T09:36:42;100981.59;;;12.63;100.00
33404;BME280;19751;40.274;18.268;2023-12-20T09:39:16;100984.53;;;12.68;100.00
33404;BME280;19751;40.274;18.268;2023-12-20T09:42:07;100965.66;;;12.75;100.00
33404;BME280;19751;40.274;18.268;2023-12-20T09:44:33;100965.91;;;12.80;100.00
33404;BME280;19751;40.274;18.268;2023-12-20T09:47:03;100963.25;;;12.86;100.00
33404;BME280;19751;40.274;18.268;2023-12-20T09:49:29;100963.47;;;12.91;100.00
33404;BME280;19751;40.274;18.268;2023-12-20T09:51:56;100952.91;;;12.97;100.00
33404;BME280;19751;40.274;18.268;2023-12-20T09:54:22;100954.16;;;13.01;100.00
33404;BME280;19751;40.274;18.268;2023-12-20T09:56:48;100942.97;;;13.04;100.00
33404;BME280;19751;40.274;18.268;2023-12-20T09:59:14;100939.66;;;13.08;100.00
33404;BME280;19751;40.274;18.268;2023-12-20T10:01:40;100942.13;;;13.10;100.00
33404;BME280;19751;40.274;18.268;2023-12-20T10:04:08;100936.13;;;13.14;100.00
33404;BME280;19751;40.274;18.268;2023-12-20T10:06:36;100928.25;;;13.19;100.00
33404;BME280;19751;40.274;18.268;2023-12-20T10:09:02;100920.63;;;13.23;100.00
33404;BME280;19751;40.274;18.268;2023-12-20T10:11:27;100912.06;;;13.26;100.00
33404;BME280;19751;40.274;18.268;2023-12-20T10:13:59;100910.00;;;13.35;100.00
33404;BME280;19751;40.274;18.268;2023-12-20T10:16:27;100912.09;;;13.39;100.00
33404;BME280;19751;40.274;18.268;2023-12-20T10:18:54;100907.56;;;13.47;100.00
33404;BME280;19751;40.274;18.268;2023-12-20T10:21:22;100909.84;;;13.50;100.00
33404;BME280;19751;40.274;18.268;2023-12-20T10:23:49;100890.53;;;13.53;100.00
33404;BME280;19751;40.274;18.268;2023-12-20T10:26:24;100891.56;;;13.58;100.00
33404;BME280;19751;40.274;18.268;2023-12-20T10:28:52;100889.50;;;13.60;100.00
33404;BME280;19751;40.274;18.268;2023-12-20T10:31:31;100876.16;;;13.65;100.00
33404;BME280;19751;40.274;18.268;2023-12-20T10:33:58;100875.75;;;13.68;100.00
33404;BME280;19751;40.274;18.268;2023-12-20T10:36:28;100869.91;;;13.72;100.00
33404;BME280;19751;40.274;18.268;2023-12-20T10:38:55;100879.09;;;13.77;100.00
33404;BME280;19751;40.274;18.268;2023-12-20T10:41:32;100869.91;;;13.85;100.00
33404;BME280;19751;40.274;18.268;2023-12-20T10:44:03;100870.56;;;13.93;100.00
33404;BME280;19751;40.274;18.268;2023-12-20T10:46:34;100863.25;;;14.01;100.00
33404;BME280;19751;40.274;18.268;2023-12-20T10:49:02;100855.13;;;14.07;100.00
33404;BME280;19751;40.274;18.268;2023-12-20T10:51:28;100855.13;;;14.14;100.00
33404;BME280;19751;40.274;18.268;2023-12-20T10:53:55;100848.22;;;14.18;100.00
33404;BME280;19751;40.274;18.268;2023-12-20T10:56:22;100854.28;;;14.20;100.00
33404;BME280;19751;40.274;18.268;2023-12-20T10:58:51;100852.00;;;14.17;100.00
33404;BME280;19751;40.274;18.268;2023-12-20T11:01:18;100848.69;;;14.15;100.00
33404;BME280;19751;40.274;18.268;2023-12-20T11:03:52;100843.25;;;14.15;100.00
33404;BME280;19751;40.274;18.268;2023-12-20T11:06:43;100841.38;;;14.15;100.00
33404;BME280;19751;40.274;18.268;2023-12-20T11:09:17;100836.38;;;14.19;100.00
33404;BME280;19751;40.274;18.268;2023-12-20T11:14:42;100830.75;;;14.21;100.00
33404;BME280;19751;40.274;18.268;2023-12-20T11:17:11;100832.41;;;14.22;100.00
33404;BME280;19751;40.274;18.268;2023-12-20T11:22:28;100814.25;;;14.29;100.00
33404;BME280;19751;40.274;18.268;2023-12-20T11:25:08;100814.69;;;14.32;100.00
33404;BME280;19751;40.274;18.268;2023-12-20T11:27:34;100805.31;;;14.35;100.00
33404;BME280;19751;40.274;18.268;2023-12-20T11:30:03;100804.03;;;14.37;100.00
33404;BME280;19751;40.274;18.268;2023-12-20T11:32:31;100795.66;;;14.39;100.00
33404;BME280;19751;40.274;18.268;2023-12-20T11:35:01;100791.31;;;14.38;100.00
33404;BME280;19751;40.274;18.268;2023-12-20T11:37:41;100786.72;;;14.38;100.00
33404;BME280;19751;40.274;18.268;2023-12-20T11:40:17;100785.25;;;14.42;100.00
33404;BME280;19751;40.274;18.268;2023-12-20T11:42:44;100781.50;;;14.50;100.00
33404;BME280;19751;40.274;18.268;2023-12-20T11:45:16;100780.59;;;14.63;100.00
33404;BME280;19751;40.274;18.268;2023-12-20T11:47:46;100781.84;;;14.67;100.00
33404;BME280;19751;40.274;18.268;2023-12-20T11:50:12;100779.53;;;14.71;100.00
33404;BME280;19751;40.274;18.268;2023-12-20T11:52:38;100765.97;;;14.71;100.00
33404;BME280;19751;40.274;18.268;2023-12-20T11:55:04;100766.63;;;14.73;100.00
33404;BME280;19751;40.274;18.268;2023-12-20T11:57:30;100760.56;;;14.71;100.00
33404;BME280;19751;40.274;18.268;2023-12-20T11:59:56;100761.84;;;14.68;100.00
33404;BME280;19751;40.274;18.268;2023-12-20T12:02:22;100762.66;;;14.69;100.00
33404;BME280;19751;40.274;18.268;2023-12-20T12:04:49;100759.72;;;14.70;100.00
33404;BME280;19751;40.274;18.268;2023-12-20T12:07:18;100758.50;;;14.66;100.00
33404;BME280;19751;40.274;18.268;2023-12-20T12:09:43;100755.78;;;14.66;100.00
33404;BME280;19751;40.274;18.268;2023-12-20T12:12:10;100746.59;;;14.67;100.00
33404;BME280;19751;40.274;18.268;2023-12-20T12:14:37;100750.13;;;14.67;100.00
33404;BME280;19751;40.274;18.268;2023-12-20T12:17:03;100748.28;;;14.68;100.00
33404;BME280;19751;40.274;18.268;2023-12-20T12:19:29;100741.44;;;14.59;100.00
33404;BME280;19751;40.274;18.268;2023-12-20T12:22:11;100735.22;;;14.52;100.00
33404;BME280;19751;40.274;18.268;2023-12-20T12:24:42;100733.97;;;14.48;100.00
33404;BME280;19751;40.274;18.268;2023-12-20T12:27:08;100733.97;;;14.48;100.00
33404;BME280;19751;40.274;18.268;2023-12-20T12:29:34;100732.28;;;14.47;100.00
33404;BME280;19751;40.274;18.268;2023-12-20T12:32:01;100724.81;;;14.49;100.00
33404;BME280;19751;40.274;18.268;2023-12-20T12:34:30;100724.81;;;14.49;100.00
33404;BME280;19751;40.274;18.268;2023-12-20T12:36:56;100730.00;;;14.50;100.00